createdAt,value
2018-05-17T00:02:25.493Z,12.17
2018-05-17T00:04:51.880Z,13.47
2018-05-17T00:07:18.285Z,8.63
2018-05-17T00:09:44.637Z,9.43
2018-05-17T00:12:11.088Z,8.70
2018-05-17T00:14:37.585Z,11.13
2018-05-17T00:17:04.112Z,10.03
2018-05-17T00:19:30.477Z,10.57
2018-05-17T00:21:56.813Z,12.10
2018-05-17T00:24:23.213Z,10.80
2018-05-17T00:26:49.517Z,10.87
2018-05-17T00:29:15.878Z,9.87
2018-05-17T00:31:42.282Z,11.00
2018-05-17T00:34:08.627Z,11.30
2018-05-17T00:36:34.971Z,12.77
2018-05-17T00:39:01.711Z,10.63
2018-05-17T00:41:28.162Z,12.80
2018-05-17T00:43:54.534Z,13.30
2018-05-17T00:46:20.885Z,11.30
2018-05-17T00:48:47.257Z,11.17
2018-05-17T00:51:13.670Z,13.40
2018-05-17T00:53:40.023Z,9.60
2018-05-17T00:56:07.134Z,8.53
2018-05-17T00:58:33.488Z,8.37
2018-05-17T01:00:59.859Z,8.70
2018-05-17T01:03:27.098Z,6.97
2018-05-17T01:05:53.457Z,9.40
2018-05-17T01:08:19.822Z,10.43
2018-05-17T01:10:46.265Z,10.10
2018-05-17T01:13:12.618Z,11.73
2018-05-17T01:15:39.014Z,10.97
2018-05-17T01:18:05.416Z,9.27
2018-05-17T01:20:31.774Z,10.33
2018-05-17T01:22:58.158Z,11.10
2018-05-17T01:25:24.546Z,11.87
2018-05-17T01:27:50.986Z,9.97
2018-05-17T01:30:17.431Z,8.93
2018-05-17T01:32:43.893Z,8.37
2018-05-17T01:35:10.278Z,10.80
2018-05-17T01:37:49.022Z,9.33
2018-05-17T01:40:15.331Z,8.63
2018-05-17T01:42:41.738Z,9.70
2018-05-17T01:45:08.100Z,10.63
2018-05-17T01:47:34.523Z,9.40
2018-05-17T01:50:00.898Z,11.47
2018-05-17T01:52:27.334Z,13.17
2018-05-17T01:54:53.684Z,12.00
2018-05-17T01:57:20.077Z,10.00
2018-05-17T01:59:46.460Z,10.00
2018-05-17T02:02:14.733Z,13.93
2018-05-17T02:04:41.145Z,10.13
2018-05-17T02:07:07.522Z,10.33
2018-05-17T02:09:33.897Z,8.67
2018-05-17T02:12:00.271Z,10.03
2018-05-17T02:14:26.678Z,10.63
2018-05-17T02:16:53.184Z,11.57
2018-05-17T02:19:19.635Z,10.20
2018-05-17T02:21:45.924Z,11.60
2018-05-17T02:24:12.334Z,13.77
2018-05-17T02:26:38.718Z,12.07
2018-05-17T02:29:05.225Z,13.23
2018-05-17T02:31:31.759Z,9.97
2018-05-17T02:33:58.116Z,13.37
2018-05-17T02:36:24.481Z,10.53
2018-05-17T02:38:50.908Z,13.23
2018-05-17T02:41:17.302Z,14.57
2018-05-17T02:43:43.703Z,11.50
2018-05-17T02:46:10.185Z,14.63
2018-05-17T02:48:36.549Z,12.37
2018-05-17T02:51:02.957Z,11.73
2018-05-17T02:53:29.330Z,8.20
2018-05-17T02:55:55.864Z,12.27
2018-05-17T02:58:22.233Z,14.80
2018-05-17T03:00:48.610Z,11.57
2018-05-17T03:03:14.990Z,10.60
2018-05-17T03:05:41.408Z,8.10
2018-05-17T03:08:07.800Z,6.40
2018-05-17T03:10:34.173Z,7.77
2018-05-17T03:13:00.580Z,9.07
2018-05-17T03:15:26.963Z,10.17
2018-05-17T03:17:53.414Z,12.00
2018-05-17T03:20:19.824Z,11.10
2018-05-17T03:22:46.242Z,10.03
2018-05-17T03:25:12.635Z,12.17
2018-05-17T03:27:39.142Z,9.73
2018-05-17T03:30:05.474Z,8.83
2018-05-17T03:32:31.851Z,11.23
2018-05-17T03:34:58.293Z,9.27
2018-05-17T03:37:24.649Z,6.33
2018-05-17T03:39:51.036Z,8.17
2018-05-17T03:42:17.454Z,9.27
2018-05-17T03:44:43.846Z,10.13
2018-05-17T03:47:10.222Z,7.83
2018-05-17T03:49:36.628Z,9.77
2018-05-17T03:52:02.981Z,9.17
2018-05-17T03:54:29.349Z,8.23
2018-05-17T03:56:56.226Z,8.77
2018-05-17T03:59:22.610Z,6.23
2018-05-17T04:02:01.310Z,5.97
2018-05-17T04:04:39.765Z,7.53
2018-05-17T04:07:06.093Z,9.80
2018-05-17T04:09:32.385Z,8.90
2018-05-17T04:11:58.762Z,10.77
2018-05-17T04:14:25.152Z,12.83
2018-05-17T04:16:51.705Z,13.60
2018-05-17T04:19:18.257Z,13.33
2018-05-17T04:21:44.613Z,11.13
2018-05-17T04:24:11.032Z,23.80
2018-05-17T04:26:37.393Z,20.67
2018-05-17T04:29:04.826Z,15.10
2018-05-17T04:31:31.210Z,14.43
2018-05-17T04:33:57.755Z,12.10
2018-05-17T04:36:24.486Z,10.77
2018-05-17T04:38:50.861Z,12.67
2018-05-17T04:41:17.251Z,15.03
2018-05-17T04:43:43.641Z,12.60
2018-05-17T04:46:10.102Z,11.83
2018-05-17T04:48:36.625Z,13.73
2018-05-17T04:51:03.063Z,12.23
2018-05-17T04:53:29.437Z,15.07
2018-05-17T04:55:55.817Z,11.60
2018-05-17T04:58:22.214Z,9.77
2018-05-17T05:00:48.705Z,11.57
2018-05-17T05:03:15.265Z,11.47
2018-05-17T05:05:41.774Z,7.77
2018-05-17T05:08:08.467Z,11.70
2018-05-17T05:10:36.070Z,9.10
2018-05-17T05:13:02.656Z,15.67
2018-05-17T05:15:29.017Z,13.17
2018-05-17T05:17:55.550Z,11.83
2018-05-17T05:20:21.941Z,10.27
2018-05-17T05:22:48.321Z,11.37
2018-05-17T05:25:14.908Z,14.67
2018-05-17T05:27:41.366Z,8.73
2018-05-17T05:30:07.938Z,11.37
2018-05-17T05:32:34.371Z,11.93
2018-05-17T05:35:00.960Z,11.47
2018-05-17T05:37:27.409Z,9.80
2018-05-17T05:39:53.844Z,15.40
2018-05-17T05:42:20.448Z,10.27
2018-05-17T05:44:46.898Z,9.23
2018-05-17T05:47:13.578Z,7.67
2018-05-17T05:49:40.066Z,9.33
2018-05-17T05:52:06.784Z,10.37
2018-05-17T05:54:33.418Z,9.73
2018-05-17T05:56:59.887Z,11.60
2018-05-17T05:59:26.775Z,9.87
2018-05-17T06:01:53.398Z,9.97
2018-05-17T06:04:20.253Z,11.67
2018-05-17T06:06:46.674Z,12.33
2018-05-17T06:09:13.107Z,17.67
2018-05-17T06:11:39.655Z,24.33
2018-05-17T06:14:06.113Z,22.77
2018-05-17T06:16:32.578Z,20.37
2018-05-17T06:18:59.055Z,13.53
2018-05-17T06:21:25.618Z,12.03
2018-05-17T06:23:52.514Z,7.90
2018-05-17T06:26:18.899Z,11.70
2018-05-17T06:28:45.407Z,11.77
2018-05-17T06:31:11.937Z,11.73
2018-05-17T06:33:38.381Z,11.17
2018-05-17T06:36:04.944Z,8.40
2018-05-17T06:38:31.549Z,8.53
2018-05-17T06:40:57.967Z,10.93
2018-05-17T06:43:24.544Z,9.47
2018-05-17T06:45:51.038Z,11.47
2018-05-17T06:48:17.434Z,6.80
2018-05-17T06:50:43.927Z,13.10
2018-05-17T06:53:10.482Z,8.43
2018-05-17T06:55:36.999Z,9.07
2018-05-17T06:58:03.433Z,11.00
2018-05-17T07:00:29.963Z,14.63
2018-05-17T07:02:56.502Z,9.37
2018-05-17T07:05:23.038Z,9.50
2018-05-17T07:07:49.488Z,9.43
2018-05-17T07:10:16.091Z,9.90
2018-05-17T07:12:42.642Z,10.07
2018-05-17T07:15:09.023Z,16.00
2018-05-17T07:17:35.399Z,14.10
2018-05-17T07:20:01.782Z,16.63
2018-05-17T07:22:28.178Z,16.27
2018-05-17T07:24:54.587Z,16.23
2018-05-17T07:27:20.990Z,12.07
2018-05-17T07:29:47.443Z,9.60
2018-05-17T07:32:13.957Z,9.40
2018-05-17T07:34:41.105Z,8.63
2018-05-17T07:37:07.530Z,10.40
2018-05-17T07:39:34.151Z,11.20
2018-05-17T07:42:00.583Z,8.87
2018-05-17T07:44:26.961Z,12.23
2018-05-17T07:46:53.759Z,8.77
2018-05-17T07:49:20.131Z,6.37
2018-05-17T07:51:46.512Z,11.73
2018-05-17T07:54:12.882Z,10.03
2018-05-17T07:56:39.309Z,7.70
2018-05-17T07:59:05.898Z,6.90
2018-05-17T08:01:32.291Z,7.90
2018-05-17T08:03:58.899Z,6.10
2018-05-17T08:06:25.266Z,7.10
2018-05-17T08:08:51.660Z,5.57
2018-05-17T08:11:18.081Z,8.00
2018-05-17T08:13:45.294Z,6.50
2018-05-17T08:16:11.714Z,9.07
2018-05-17T08:18:38.042Z,6.60
2018-05-17T08:21:04.469Z,10.90
2018-05-17T08:23:30.800Z,6.40
2018-05-17T08:25:57.194Z,6.27
2018-05-17T08:28:23.665Z,5.23
2018-05-17T08:30:50.179Z,7.27
2018-05-17T08:33:16.599Z,6.57
2018-05-17T08:35:42.958Z,8.30
2018-05-17T08:38:09.358Z,6.50
2018-05-17T08:40:35.786Z,6.77
2018-05-17T08:43:02.230Z,6.37
2018-05-17T08:45:28.625Z,7.03
2018-05-17T08:47:56.085Z,7.20
2018-05-17T08:50:22.442Z,8.20
2018-05-17T08:52:48.870Z,10.63
2018-05-17T08:55:15.371Z,6.43
2018-05-17T08:57:41.737Z,8.83
2018-05-17T09:00:08.070Z,9.80
2018-05-17T09:02:34.455Z,7.70
2018-05-17T09:05:00.837Z,11.00
2018-05-17T09:07:27.251Z,6.67
2018-05-17T09:09:53.625Z,7.20
2018-05-17T09:12:20.025Z,9.93
2018-05-17T09:14:46.803Z,13.73
2018-05-17T09:17:13.411Z,11.43
2018-05-17T09:19:39.852Z,9.77
2018-05-17T09:22:06.249Z,12.70
2018-05-17T09:24:32.695Z,14.17
2018-05-17T09:26:59.029Z,10.93
2018-05-17T09:29:25.707Z,11.67
2018-05-17T09:31:52.025Z,37.03
2018-05-17T09:34:18.350Z,36.43
2018-05-17T09:36:44.807Z,11.60
2018-05-17T09:39:11.198Z,11.37
2018-05-17T09:41:37.732Z,9.77
2018-05-17T09:44:04.390Z,6.67
2018-05-17T09:46:30.782Z,6.87
2018-05-17T09:48:57.397Z,7.83
2018-05-17T09:51:24.022Z,7.70
2018-05-17T09:53:50.529Z,8.13
2018-05-17T09:56:17.269Z,9.23
2018-05-17T09:58:43.661Z,7.43
2018-05-17T10:01:10.040Z,7.17
2018-05-17T10:03:36.473Z,6.07
2018-05-17T10:06:02.884Z,7.53
2018-05-17T10:08:29.601Z,13.07
2018-05-17T10:10:56.336Z,6.47
2018-05-17T10:13:22.738Z,7.40
2018-05-17T10:15:49.097Z,6.67
2018-05-17T10:18:15.502Z,7.63
2018-05-17T10:20:42.043Z,9.90
2018-05-17T10:23:08.520Z,7.97
2018-05-17T10:25:35.111Z,7.50
2018-05-17T10:28:01.532Z,8.07
2018-05-17T10:30:27.894Z,7.00
2018-05-17T10:32:54.379Z,7.80
2018-05-17T10:35:20.751Z,10.47
2018-05-17T10:37:47.145Z,5.30
2018-05-17T10:40:14.653Z,5.93
2018-05-17T10:42:41.150Z,6.37
2018-05-17T10:45:07.503Z,5.00
2018-05-17T10:47:34.037Z,9.47
2018-05-17T10:50:00.404Z,9.43
2018-05-17T10:52:26.744Z,7.53
2018-05-17T10:54:53.090Z,5.03
2018-05-17T10:57:19.481Z,7.47
2018-05-17T10:59:46.119Z,6.80
2018-05-17T11:02:12.773Z,6.77
2018-05-17T11:04:39.124Z,8.67
2018-05-17T11:07:05.711Z,5.83
2018-05-17T11:09:32.097Z,8.27
2018-05-17T11:11:58.740Z,5.70
2018-05-17T11:14:25.091Z,9.30
2018-05-17T11:16:52.397Z,7.60
2018-05-17T11:19:18.973Z,6.53
2018-05-17T11:21:45.365Z,8.47
2018-05-17T11:24:13.690Z,7.17
2018-05-17T11:26:40.150Z,9.87
2018-05-17T11:29:06.590Z,7.00
2018-05-17T11:31:33.023Z,8.27
2018-05-17T11:33:59.859Z,6.33
2018-05-17T11:36:27.471Z,4.03
2018-05-17T11:38:53.902Z,7.17
2018-05-17T11:41:20.547Z,8.17
2018-05-17T11:43:47.071Z,8.50
2018-05-17T11:46:13.482Z,6.63
2018-05-17T11:48:39.934Z,4.30
2018-05-17T11:51:06.506Z,5.27
2018-05-17T11:53:32.914Z,6.03
2018-05-17T11:55:59.281Z,5.60
2018-05-17T11:58:25.677Z,7.77
2018-05-17T12:00:52.060Z,7.70
2018-05-17T12:03:18.719Z,5.00
2018-05-17T12:05:45.166Z,8.20
2018-05-17T12:08:11.686Z,6.30
2018-05-17T12:10:38.308Z,8.40
2018-05-17T12:13:04.670Z,6.50
2018-05-17T12:15:31.256Z,8.90
2018-05-17T12:17:57.687Z,5.00
2018-05-17T12:20:24.124Z,8.73
2018-05-17T12:22:50.543Z,8.50
2018-05-17T12:25:17.085Z,5.80
2018-05-17T12:27:44.090Z,7.73
2018-05-17T12:30:10.758Z,5.87
2018-05-17T12:32:37.163Z,11.10
2018-05-17T12:35:03.781Z,9.07
2018-05-17T12:37:30.426Z,8.50
2018-05-17T12:39:56.950Z,6.67
2018-05-17T12:42:23.473Z,7.40
2018-05-17T12:44:49.854Z,7.80
2018-05-17T12:47:16.550Z,6.10
2018-05-17T12:49:43.103Z,5.57
2018-05-17T12:52:09.936Z,7.50
2018-05-17T12:54:36.519Z,8.87
2018-05-17T12:57:03.049Z,7.70
2018-05-17T12:59:29.474Z,4.93
2018-05-17T13:01:56.072Z,7.80
2018-05-17T13:04:23.486Z,5.97
2018-05-17T13:06:49.934Z,5.73
2018-05-17T13:09:16.295Z,9.93
2018-05-17T13:11:42.804Z,6.90
2018-05-17T13:14:09.178Z,8.60
2018-05-17T13:16:35.664Z,8.53
2018-05-17T13:19:02.082Z,5.00
2018-05-17T13:21:28.493Z,7.67
2018-05-17T13:23:54.918Z,8.20
2018-05-17T13:26:21.413Z,9.70
2018-05-17T13:28:47.947Z,11.20
2018-05-17T13:31:14.413Z,7.13
2018-05-17T13:33:40.805Z,6.27
2018-05-17T13:36:07.244Z,7.10
2018-05-17T13:38:33.704Z,9.90
2018-05-17T13:41:00.066Z,6.80
2018-05-17T13:43:26.474Z,7.20
2018-05-17T13:45:52.946Z,7.53
2018-05-17T13:48:19.473Z,5.87
2018-05-17T13:50:45.974Z,9.37
2018-05-17T13:53:12.401Z,8.97
2018-05-17T13:55:38.979Z,9.70
2018-05-17T13:58:05.334Z,9.20
2018-05-17T14:00:31.733Z,7.27
2018-05-17T14:02:58.182Z,7.40
2018-05-17T14:05:24.550Z,9.00
2018-05-17T14:07:50.979Z,7.87
2018-05-17T14:10:17.370Z,8.93
2018-05-17T14:12:43.794Z,8.70
2018-05-17T14:15:10.368Z,8.70
2018-05-17T14:17:36.847Z,10.50
2018-05-17T14:20:03.281Z,7.70
2018-05-17T14:22:29.814Z,10.60
2018-05-17T14:24:56.200Z,9.50
2018-05-17T14:27:22.608Z,11.30
2018-05-17T14:29:49.154Z,7.03
2018-05-17T14:32:15.950Z,10.87
2018-05-17T14:34:42.325Z,8.63
2018-05-17T14:37:08.801Z,8.60
2018-05-17T14:39:35.191Z,8.77
2018-05-17T14:42:01.591Z,11.80
2018-05-17T14:44:28.054Z,8.03
2018-05-17T14:46:54.491Z,11.70
2018-05-17T14:49:20.842Z,9.93
2018-05-17T14:51:47.225Z,11.13
2018-05-17T14:54:13.633Z,7.70
2018-05-17T14:56:40.192Z,9.33
2018-05-17T14:59:06.679Z,8.60
2018-05-17T15:01:33.096Z,10.03
2018-05-17T15:03:59.528Z,7.17
2018-05-17T15:06:25.925Z,8.63
2018-05-17T15:08:52.329Z,7.23
2018-05-17T15:11:18.802Z,9.20
2018-05-17T15:13:46.177Z,9.00
2018-05-17T15:16:12.574Z,7.97
2018-05-17T15:18:38.984Z,8.40
2018-05-17T15:21:05.388Z,8.23
2018-05-17T15:23:31.736Z,6.27
2018-05-17T15:25:58.212Z,9.50
2018-05-17T15:28:24.630Z,6.50
2018-05-17T15:30:51.056Z,8.93
2018-05-17T15:33:17.513Z,9.43
2018-05-17T15:35:44.065Z,9.77
2018-05-17T15:38:10.426Z,9.17
2018-05-17T15:40:36.891Z,8.07
2018-05-17T15:43:03.270Z,7.00
2018-05-17T15:45:29.705Z,7.67
2018-05-17T15:47:56.100Z,7.30
2018-05-17T15:50:22.620Z,9.17
2018-05-17T15:52:49.029Z,12.30
2018-05-17T15:55:15.446Z,8.37
2018-05-17T15:57:41.899Z,6.83
2018-05-17T16:00:08.358Z,7.17
2018-05-17T16:02:34.805Z,7.43
2018-05-17T16:05:01.336Z,7.10
2018-05-17T16:07:27.769Z,11.00
2018-05-17T16:09:54.165Z,7.53
2018-05-17T16:12:20.612Z,9.67
2018-05-17T16:14:47.212Z,7.53
2018-05-17T16:17:13.835Z,5.80
2018-05-17T16:19:40.288Z,7.80
2018-05-17T16:22:06.694Z,14.43
2018-05-17T16:24:33.056Z,9.50
2018-05-17T16:26:59.457Z,7.33
2018-05-17T16:29:25.878Z,15.87
2018-05-17T16:31:52.312Z,5.67
2018-05-17T16:34:18.638Z,6.87
2018-05-17T16:36:45.090Z,9.90
2018-05-17T16:39:12.020Z,9.33
2018-05-17T16:41:38.397Z,7.70
2018-05-17T16:44:04.800Z,7.20
2018-05-17T16:46:31.196Z,4.73
2018-05-17T16:48:57.554Z,6.30
2018-05-17T16:51:23.914Z,7.47
2018-05-17T16:53:50.434Z,8.77
2018-05-17T16:56:16.816Z,5.93
2018-05-17T16:58:43.312Z,5.70
2018-05-17T17:01:09.649Z,4.27
2018-05-17T17:03:36.038Z,5.10
2018-05-17T17:06:02.450Z,4.20
2018-05-17T17:08:28.886Z,9.00
2018-05-17T17:10:55.366Z,9.40
2018-05-17T17:13:21.695Z,8.03
2018-05-17T17:15:48.077Z,7.30
2018-05-17T17:18:14.488Z,7.90
2018-05-17T17:20:40.850Z,5.90
2018-05-17T17:23:07.328Z,5.87
2018-05-17T17:25:33.837Z,6.67
2018-05-17T17:28:00.224Z,7.00
2018-05-17T17:30:26.611Z,5.30
2018-05-17T17:32:53.006Z,6.83
2018-05-17T17:35:19.380Z,6.10
2018-05-17T17:37:45.741Z,5.93
2018-05-17T17:40:12.107Z,6.50
2018-05-17T17:42:38.517Z,7.77
2018-05-17T17:45:04.917Z,5.00
2018-05-17T17:47:31.303Z,8.07
2018-05-17T17:49:57.776Z,7.10
2018-05-17T17:52:24.138Z,6.87
2018-05-17T17:54:51.530Z,6.80
2018-05-17T17:57:17.913Z,5.53
2018-05-17T17:59:44.292Z,5.83
2018-05-17T18:02:11.003Z,7.07
2018-05-17T18:04:37.343Z,7.00
2018-05-17T18:07:03.809Z,7.00
2018-05-17T18:09:30.153Z,7.17
2018-05-17T18:11:56.613Z,6.90
2018-05-17T18:14:23.066Z,6.00
2018-05-17T18:16:49.407Z,6.03
2018-05-17T18:19:15.811Z,7.50
2018-05-17T18:21:42.198Z,8.27
2018-05-17T18:24:08.618Z,8.27
2018-05-17T18:26:35.044Z,9.50
2018-05-17T18:29:01.410Z,6.20
2018-05-17T18:31:27.808Z,6.40
2018-05-17T18:33:54.301Z,6.93
2018-05-17T18:36:20.629Z,8.27
2018-05-17T18:38:47.024Z,11.10
2018-05-17T18:41:13.408Z,7.90
2018-05-17T18:43:39.803Z,5.93
2018-05-17T18:46:06.198Z,6.23
2018-05-17T18:48:32.586Z,6.37
2018-05-17T18:50:58.996Z,5.33
2018-05-17T18:53:25.409Z,5.87
2018-05-17T18:55:51.862Z,8.53
2018-05-17T18:58:18.218Z,8.50
2018-05-17T19:00:44.613Z,5.83
2018-05-17T19:03:11.070Z,8.00
2018-05-17T19:05:37.548Z,7.77
2018-05-17T19:08:03.959Z,6.50
2018-05-17T19:10:30.342Z,7.40
2018-05-17T19:12:56.806Z,5.07
2018-05-17T19:15:23.176Z,5.23
2018-05-17T19:17:49.572Z,5.53
2018-05-17T19:20:15.954Z,5.60
2018-05-17T19:22:42.471Z,5.17
2018-05-17T19:25:08.871Z,8.30
2018-05-17T19:27:35.250Z,7.70
2018-05-17T19:30:01.634Z,8.47
2018-05-17T19:32:28.004Z,8.03
2018-05-17T19:34:54.378Z,12.63
2018-05-17T19:37:20.820Z,5.13
2018-05-17T19:39:47.232Z,5.93
2018-05-17T19:42:13.587Z,7.97
2018-05-17T19:44:39.986Z,9.70
2018-05-17T19:47:06.397Z,7.03
2018-05-17T19:49:32.762Z,8.97
2018-05-17T19:51:59.159Z,11.13
2018-05-17T19:54:25.542Z,5.97
2018-05-17T19:56:52.026Z,7.57
2018-05-17T19:59:18.359Z,7.73
2018-05-17T20:01:44.709Z,6.90
2018-05-17T20:04:11.224Z,6.87
2018-05-17T20:06:37.657Z,7.93
2018-05-17T20:09:04.960Z,6.53
2018-05-17T20:11:31.346Z,8.03
2018-05-17T20:13:57.749Z,6.80
2018-05-17T20:16:24.212Z,6.90
2018-05-17T20:18:50.619Z,10.70
2018-05-17T20:21:17.014Z,8.27
2018-05-17T20:23:43.990Z,12.17
2018-05-17T20:26:10.356Z,7.37
2018-05-17T20:28:36.775Z,7.80
2018-05-17T20:31:03.324Z,8.70
2018-05-17T20:33:29.725Z,6.77
2018-05-17T20:35:56.130Z,9.60
2018-05-17T20:38:23.518Z,7.87
2018-05-17T20:40:49.902Z,11.10
2018-05-17T20:43:16.259Z,8.33
2018-05-17T20:45:42.671Z,6.90
2018-05-17T20:48:09.110Z,8.77
2018-05-17T20:50:35.482Z,8.50
2018-05-17T20:53:01.853Z,7.90
2018-05-17T20:55:28.249Z,7.33
2018-05-17T20:57:54.706Z,9.47
2018-05-17T21:00:21.106Z,11.33
2018-05-17T21:02:47.557Z,7.40
2018-05-17T21:05:13.921Z,7.23
2018-05-17T21:07:40.326Z,7.30
2018-05-17T21:10:06.677Z,8.00
2018-05-17T21:12:33.077Z,9.90
2018-05-17T21:15:00.332Z,9.70
2018-05-17T21:17:26.778Z,8.97
2018-05-17T21:19:53.198Z,11.47
2018-05-17T21:22:19.657Z,9.47
2018-05-17T21:24:46.053Z,10.23
2018-05-17T21:27:12.548Z,11.07
2018-05-17T21:29:38.843Z,7.80
2018-05-17T21:32:05.245Z,9.30
2018-05-17T21:34:31.593Z,7.30
2018-05-17T21:36:57.944Z,8.70
2018-05-17T21:39:24.384Z,8.67
2018-05-17T21:41:50.798Z,10.90
2018-05-17T21:44:17.250Z,7.57
2018-05-17T21:46:43.650Z,8.83
2018-05-17T21:49:10.037Z,6.77
2018-05-17T21:51:36.438Z,7.53
2018-05-17T21:54:03.003Z,10.97
2018-05-17T21:56:29.414Z,9.47
2018-05-17T21:58:55.780Z,11.27
2018-05-17T22:01:22.196Z,7.93
2018-05-17T22:03:48.654Z,8.20
2018-05-17T22:06:15.090Z,10.47
2018-05-17T22:08:41.466Z,7.47
2018-05-17T22:11:07.814Z,9.03
2018-05-17T22:13:34.352Z,9.07
2018-05-17T22:16:00.738Z,7.93
2018-05-17T22:18:27.197Z,6.87
2018-05-17T22:20:53.627Z,7.47
2018-05-17T22:23:20.024Z,7.77
2018-05-17T22:25:46.447Z,8.67
2018-05-17T22:28:12.844Z,7.30
2018-05-17T22:30:39.180Z,7.87
2018-05-17T22:33:05.575Z,6.80
2018-05-17T22:35:32.003Z,10.50
2018-05-17T22:37:58.436Z,9.93
2018-05-17T22:40:24.861Z,10.47
2018-05-17T22:42:51.277Z,7.47
2018-05-17T22:45:17.659Z,10.60
2018-05-17T22:47:44.069Z,9.73
2018-05-17T22:50:10.456Z,11.63
2018-05-17T22:52:36.880Z,8.80
2018-05-17T22:55:03.466Z,8.30
2018-05-17T22:57:42.755Z,8.50
2018-05-17T23:00:17.190Z,7.27
2018-05-17T23:02:43.443Z,10.83
2018-05-17T23:05:09.939Z,10.07
2018-05-17T23:07:36.341Z,10.30
2018-05-17T23:10:02.863Z,9.13
2018-05-17T23:12:29.215Z,9.10
2018-05-17T23:14:55.584Z,7.70
2018-05-17T23:17:21.978Z,12.37
2018-05-17T23:19:48.384Z,7.40
2018-05-17T23:22:16.750Z,9.13
2018-05-17T23:24:45.120Z,11.00
2018-05-17T23:27:11.542Z,9.80
2018-05-17T23:29:37.930Z,10.13
2018-05-17T23:32:04.314Z,7.03
2018-05-17T23:34:30.769Z,9.87
2018-05-17T23:36:57.293Z,8.50
2018-05-17T23:39:23.744Z,7.93
2018-05-17T23:41:50.155Z,7.17
2018-05-17T23:44:16.550Z,9.33
2018-05-17T23:46:42.930Z,9.53
2018-05-17T23:49:09.331Z,10.23
2018-05-17T23:51:35.790Z,9.17
2018-05-17T23:54:02.176Z,8.90
2018-05-17T23:56:28.574Z,7.40
2018-05-17T23:58:54.914Z,10.10
